createdAt,value
2022-08-26T00:00:34.003Z,4.10
2022-08-26T00:01:34.010Z,4.30
2022-08-26T00:02:33.998Z,4.20
2022-08-26T00:03:33.958Z,4.60
2022-08-26T00:04:33.960Z,4.30
2022-08-26T00:05:33.986Z,4.70
2022-08-26T00:06:33.926Z,4.40
2022-08-26T00:07:33.945Z,3.80
2022-08-26T00:08:33.917Z,3.70
2022-08-26T00:09:33.911Z,4.40
2022-08-26T00:10:34.969Z,4.40
2022-08-26T00:11:33.892Z,3.90
2022-08-26T00:12:37.448Z,4.10
2022-08-26T00:13:33.874Z,4.70
2022-08-26T00:14:33.865Z,4.40
2022-08-26T00:15:33.867Z,5.10
2022-08-26T00:16:33.970Z,3.80
2022-08-26T00:17:33.852Z,4.80
2022-08-26T00:18:38.740Z,4.10
2022-08-26T00:19:34.840Z,4.60
2022-08-26T00:20:33.808Z,4.30
2022-08-26T00:21:34.050Z,5.20
2022-08-26T00:22:33.839Z,5.30
2022-08-26T00:23:33.807Z,5.20
2022-08-26T00:24:33.809Z,4.40
2022-08-26T00:25:33.796Z,4.80
2022-08-26T00:26:33.774Z,5.00
2022-08-26T00:27:33.807Z,4.80
2022-08-26T00:28:33.786Z,6.20
2022-08-26T00:29:34.789Z,5.50
2022-08-26T00:30:33.768Z,5.20
2022-08-26T00:31:33.814Z,4.70
2022-08-26T00:32:33.798Z,5.10
2022-08-26T00:33:33.745Z,5.80
2022-08-26T00:34:33.740Z,5.30
2022-08-26T00:35:33.711Z,5.80
2022-08-26T00:36:33.703Z,4.40
2022-08-26T00:37:33.940Z,4.80
2022-08-26T00:38:34.693Z,4.50
2022-08-26T00:39:33.744Z,4.80
2022-08-26T00:40:33.739Z,5.30
2022-08-26T00:41:33.685Z,4.50
2022-08-26T00:42:33.673Z,4.90
2022-08-26T00:43:47.744Z,4.90
2022-08-26T00:44:34.675Z,4.70
2022-08-26T00:45:33.712Z,5.00
2022-08-26T00:46:33.640Z,5.40
2022-08-26T00:47:33.747Z,5.10
2022-08-26T00:48:33.706Z,5.20
2022-08-26T00:49:33.813Z,4.60
2022-08-26T00:50:33.604Z,5.10
2022-08-26T00:51:34.669Z,5.00
2022-08-26T00:52:33.617Z,5.30
2022-08-26T00:53:33.650Z,5.20
2022-08-26T00:54:33.599Z,5.90
2022-08-26T00:55:37.808Z,5.20
2022-08-26T00:56:33.610Z,5.10
2022-08-26T00:57:33.610Z,5.90
2022-08-26T00:58:33.619Z,5.70
2022-08-26T00:59:33.577Z,5.90
2022-08-26T01:00:33.553Z,5.20
2022-08-26T01:01:33.607Z,6.20
2022-08-26T01:02:33.563Z,6.80
2022-08-26T01:03:33.566Z,5.40
2022-08-26T01:04:33.526Z,5.50
2022-08-26T01:05:33.506Z,5.40
2022-08-26T01:06:33.498Z,5.90
2022-08-26T01:07:34.781Z,5.70
2022-08-26T01:08:33.557Z,5.50
2022-08-26T01:09:33.483Z,5.60
2022-08-26T01:10:33.476Z,6.80
2022-08-26T01:11:33.472Z,5.80
2022-08-26T01:12:33.445Z,6.80
2022-08-26T01:13:33.456Z,6.10
2022-08-26T01:14:33.488Z,5.80
2022-08-26T01:15:33.428Z,6.50
2022-08-26T01:16:33.505Z,6.40
2022-08-26T01:17:33.761Z,7.00
2022-08-26T01:18:33.436Z,6.90
2022-08-26T01:19:33.451Z,7.60
2022-08-26T01:20:33.405Z,6.80
2022-08-26T01:21:33.417Z,7.20
2022-08-26T01:22:33.442Z,7.30
2022-08-26T01:23:33.529Z,6.70
2022-08-26T01:24:33.601Z,6.80
2022-08-26T01:25:33.429Z,6.90
2022-08-26T01:26:33.454Z,6.80
2022-08-26T01:27:33.648Z,8.00
2022-08-26T01:28:33.347Z,6.90
2022-08-26T01:29:33.453Z,6.50
2022-08-26T01:30:33.380Z,7.50
2022-08-26T01:31:33.416Z,7.40
2022-08-26T01:32:33.345Z,7.20
2022-08-26T01:33:42.010Z,7.90
2022-08-26T01:34:34.339Z,7.50
2022-08-26T01:35:33.334Z,7.60
2022-08-26T01:36:33.330Z,7.50
2022-08-26T01:37:33.302Z,7.70
2022-08-26T01:38:33.312Z,7.50
2022-08-26T01:39:33.348Z,8.40
2022-08-26T01:40:33.364Z,8.80
2022-08-26T01:41:33.263Z,8.40
2022-08-26T01:42:33.251Z,8.50
2022-08-26T01:43:33.251Z,7.10
2022-08-26T01:44:33.276Z,7.80
2022-08-26T01:45:34.295Z,7.50
2022-08-26T01:46:33.226Z,7.40
2022-08-26T01:47:33.226Z,7.20
2022-08-26T01:48:33.304Z,7.30
2022-08-26T01:49:33.220Z,7.80
2022-08-26T01:50:33.228Z,7.50
2022-08-26T01:51:33.220Z,7.40
2022-08-26T01:52:33.243Z,8.10
2022-08-26T01:53:33.296Z,7.30
2022-08-26T01:54:34.207Z,8.00
2022-08-26T01:55:34.116Z,7.10
2022-08-26T01:56:36.518Z,8.40
2022-08-26T01:57:33.169Z,7.00
2022-08-26T01:58:33.298Z,7.70
2022-08-26T01:59:33.356Z,8.40
2022-08-26T02:00:33.307Z,8.00
2022-08-26T02:01:33.197Z,9.50
2022-08-26T02:02:33.133Z,7.90
2022-08-26T02:03:33.202Z,7.50
2022-08-26T02:04:34.180Z,8.00
2022-08-26T02:05:33.125Z,8.20
2022-08-26T02:06:33.135Z,7.00
2022-08-26T02:07:33.371Z,8.70
2022-08-26T02:08:33.256Z,7.80
2022-08-26T02:09:33.169Z,8.00
2022-08-26T02:10:34.103Z,7.70
2022-08-26T02:11:33.061Z,7.00
2022-08-26T02:12:33.043Z,7.20
2022-08-26T02:13:33.067Z,7.80
2022-08-26T02:14:33.046Z,6.90
2022-08-26T02:15:33.158Z,7.70
2022-08-26T02:16:33.075Z,7.30
2022-08-26T02:17:34.159Z,6.90
2022-08-26T02:18:33.245Z,7.30
2022-08-26T02:19:33.138Z,7.20
2022-08-26T02:20:32.991Z,7.50
2022-08-26T02:21:33.017Z,6.40
2022-08-26T02:22:33.245Z,8.10
2022-08-26T02:23:32.992Z,8.00
2022-08-26T02:24:32.967Z,7.30
2022-08-26T02:25:32.964Z,7.30
2022-08-26T02:26:32.989Z,8.40
2022-08-26T02:27:33.047Z,8.30
2022-08-26T02:28:32.972Z,8.00
2022-08-26T02:29:32.948Z,7.80
2022-08-26T02:30:32.935Z,8.60
2022-08-26T02:31:32.971Z,9.00
2022-08-26T02:32:32.902Z,8.40
2022-08-26T02:33:33.038Z,6.80
2022-08-26T02:34:32.978Z,7.10
2022-08-26T02:35:32.935Z,8.60
2022-08-26T02:36:32.946Z,8.40
2022-08-26T02:37:32.874Z,8.20
2022-08-26T02:38:32.921Z,8.40
2022-08-26T02:39:32.856Z,7.70
2022-08-26T02:40:32.888Z,8.70
2022-08-26T02:41:32.901Z,8.40
2022-08-26T02:42:32.858Z,7.40
2022-08-26T02:43:33.096Z,8.90
2022-08-26T02:44:32.873Z,9.30
2022-08-26T02:45:32.837Z,7.50
2022-08-26T02:46:32.909Z,7.80
2022-08-26T02:47:32.859Z,8.10
2022-08-26T02:48:33.032Z,6.90
2022-08-26T02:49:32.847Z,8.20
2022-08-26T02:50:32.818Z,8.80
2022-08-26T02:51:32.811Z,8.50
2022-08-26T02:52:32.775Z,7.50
2022-08-26T02:53:35.448Z,7.50
2022-08-26T02:54:32.781Z,8.50
2022-08-26T02:55:33.007Z,8.10
2022-08-26T02:56:32.760Z,7.90
2022-08-26T02:57:32.811Z,8.20
2022-08-26T02:58:32.753Z,8.00
2022-08-26T02:59:32.759Z,7.10
2022-08-26T03:00:32.813Z,8.30
2022-08-26T03:01:32.868Z,8.20
2022-08-26T03:02:32.736Z,8.00
2022-08-26T03:03:32.744Z,8.20
2022-08-26T03:04:33.328Z,6.90
2022-08-26T03:05:32.732Z,6.60
2022-08-26T03:06:32.786Z,7.90
2022-08-26T03:07:32.675Z,8.20
2022-08-26T03:08:32.691Z,8.60
2022-08-26T03:09:32.779Z,8.70
2022-08-26T03:10:32.684Z,8.70
2022-08-26T03:11:33.333Z,8.40
2022-08-26T03:12:33.754Z,8.80
2022-08-26T03:13:32.631Z,10.00
2022-08-26T03:14:32.634Z,9.90
2022-08-26T03:15:32.646Z,9.40
2022-08-26T03:16:33.006Z,10.30
2022-08-26T03:17:32.638Z,9.40
2022-08-26T03:18:32.607Z,9.40
2022-08-26T03:19:32.573Z,8.00
2022-08-26T03:20:32.602Z,8.30
2022-08-26T03:21:32.617Z,9.10
2022-08-26T03:22:32.640Z,9.70
2022-08-26T03:23:32.601Z,9.50
2022-08-26T03:24:32.570Z,9.40
2022-08-26T03:25:32.555Z,9.00
2022-08-26T03:26:32.618Z,9.50
2022-08-26T03:27:32.810Z,10.00
2022-08-26T03:28:32.547Z,10.90
2022-08-26T03:29:33.055Z,11.50
2022-08-26T03:30:32.546Z,10.60
2022-08-26T03:31:32.606Z,9.30
2022-08-26T03:32:32.528Z,9.10
2022-08-26T03:33:32.489Z,10.50
2022-08-26T03:34:32.473Z,10.70
2022-08-26T03:35:32.460Z,9.30
2022-08-26T03:36:32.551Z,10.10
2022-08-26T03:37:32.546Z,9.70
2022-08-26T03:38:32.465Z,10.30
2022-08-26T03:39:32.691Z,10.70
2022-08-26T03:40:32.508Z,11.20
2022-08-26T03:41:32.453Z,10.20
2022-08-26T03:42:32.497Z,11.00
2022-08-26T03:43:32.449Z,10.40
2022-08-26T03:44:32.425Z,12.40
2022-08-26T03:45:32.406Z,11.60
2022-08-26T03:46:32.486Z,11.90
2022-08-26T03:47:32.448Z,11.00
2022-08-26T03:48:32.369Z,11.90
2022-08-26T03:49:32.371Z,12.20
2022-08-26T03:50:34.311Z,11.10
2022-08-26T03:51:32.374Z,12.50
2022-08-26T03:52:32.443Z,11.00
2022-08-26T03:53:32.449Z,10.80
2022-08-26T03:54:32.374Z,9.50
2022-08-26T03:55:32.339Z,10.20
2022-08-26T03:56:32.358Z,10.10
2022-08-26T03:57:32.343Z,11.10
2022-08-26T03:58:32.387Z,12.00
2022-08-26T03:59:32.323Z,10.00
2022-08-26T04:00:32.307Z,9.10
2022-08-26T04:01:32.425Z,8.30
2022-08-26T04:02:32.349Z,8.60
2022-08-26T04:03:32.344Z,9.60
2022-08-26T04:04:32.525Z,9.10
2022-08-26T04:05:32.261Z,8.60
2022-08-26T04:06:32.261Z,9.60
2022-08-26T04:07:32.298Z,8.80
2022-08-26T04:08:32.327Z,10.40
2022-08-26T04:09:32.261Z,10.20
2022-08-26T04:10:32.220Z,10.10
2022-08-26T04:11:34.053Z,10.80
2022-08-26T04:12:32.217Z,10.40
2022-08-26T04:13:32.206Z,9.90
2022-08-26T04:14:32.270Z,10.80
2022-08-26T04:15:32.201Z,11.50
2022-08-26T04:16:32.671Z,11.10
2022-08-26T04:17:32.230Z,10.00
2022-08-26T04:18:37.122Z,11.80
2022-08-26T04:19:32.299Z,11.10
2022-08-26T04:20:32.228Z,10.90
2022-08-26T04:21:32.178Z,10.40
2022-08-26T04:22:32.169Z,11.00
2022-08-26T04:23:32.162Z,11.30
2022-08-26T04:24:33.229Z,11.30
2022-08-26T04:25:32.165Z,12.10
2022-08-26T04:26:32.148Z,11.90
2022-08-26T04:27:32.105Z,11.50
2022-08-26T04:28:32.167Z,12.00
2022-08-26T04:29:32.137Z,11.30
2022-08-26T04:30:32.149Z,12.00
2022-08-26T04:31:32.154Z,12.60
2022-08-26T04:32:32.124Z,12.90
2022-08-26T04:33:33.184Z,13.20
2022-08-26T04:34:32.078Z,12.60
2022-08-26T04:35:32.118Z,12.30
2022-08-26T04:36:32.060Z,11.10
2022-08-26T04:37:32.064Z,10.90
2022-08-26T04:38:32.029Z,11.70
2022-08-26T04:39:32.025Z,12.10
2022-08-26T04:40:32.163Z,11.60
2022-08-26T04:41:32.011Z,11.40
2022-08-26T04:42:32.002Z,11.10
2022-08-26T04:43:32.010Z,11.50
2022-08-26T04:44:31.998Z,12.70
2022-08-26T04:45:31.984Z,12.00
2022-08-26T04:46:32.073Z,10.90
2022-08-26T04:47:32.574Z,10.10
2022-08-26T04:48:32.954Z,11.40
2022-08-26T04:49:35.266Z,10.20
2022-08-26T04:50:31.951Z,11.70
2022-08-26T04:51:32.003Z,9.50
2022-08-26T04:52:31.930Z,10.80
2022-08-26T04:53:31.930Z,10.70
2022-08-26T04:54:31.940Z,12.20
2022-08-26T04:55:38.407Z,10.90
2022-08-26T04:56:32.998Z,10.30
2022-08-26T04:57:31.893Z,10.30
2022-08-26T04:58:31.928Z,10.90
2022-08-26T04:59:34.089Z,9.60
2022-08-26T05:00:32.895Z,10.70
2022-08-26T05:01:31.917Z,11.40
2022-08-26T05:02:31.921Z,10.90
2022-08-26T05:03:31.886Z,10.10
2022-08-26T05:04:31.872Z,11.20
2022-08-26T05:05:31.865Z,10.20
2022-08-26T05:06:31.861Z,11.60
2022-08-26T05:07:32.897Z,11.40
2022-08-26T05:08:31.853Z,11.30
2022-08-26T05:09:31.837Z,9.70
2022-08-26T05:10:31.817Z,9.40
2022-08-26T05:11:31.823Z,10.10
2022-08-26T05:12:31.805Z,9.60
2022-08-26T05:13:33.262Z,9.90
2022-08-26T05:14:31.813Z,10.40
2022-08-26T05:15:31.768Z,8.30
2022-08-26T05:16:31.741Z,8.60
2022-08-26T05:17:32.746Z,7.70
2022-08-26T05:18:31.787Z,7.70
2022-08-26T05:19:31.738Z,7.80
2022-08-26T05:20:31.826Z,7.40
2022-08-26T05:21:31.734Z,7.40
2022-08-26T05:22:31.716Z,7.90
2022-08-26T05:23:31.713Z,7.50
2022-08-26T05:24:31.769Z,8.00
2022-08-26T05:25:31.816Z,7.70
2022-08-26T05:26:31.681Z,7.90
2022-08-26T05:27:31.685Z,7.50
2022-08-26T05:28:31.675Z,8.20
2022-08-26T05:29:31.893Z,8.20
2022-08-26T05:30:32.174Z,8.30
2022-08-26T05:31:31.824Z,8.30
2022-08-26T05:32:31.639Z,8.40
2022-08-26T05:33:31.637Z,8.50
2022-08-26T05:34:31.673Z,8.10
2022-08-26T05:35:31.718Z,7.90
2022-08-26T05:36:31.737Z,8.80
2022-08-26T05:37:31.760Z,7.80
2022-08-26T05:38:31.609Z,7.50
2022-08-26T05:39:31.852Z,8.90
2022-08-26T05:40:31.734Z,7.90
2022-08-26T05:41:34.490Z,6.70
2022-08-26T05:42:32.618Z,7.60
2022-08-26T05:43:31.681Z,8.30
2022-08-26T05:44:35.858Z,8.60
2022-08-26T05:45:32.686Z,8.00
2022-08-26T05:46:31.578Z,8.50
2022-08-26T05:47:31.552Z,8.30
2022-08-26T05:48:31.534Z,8.50
2022-08-26T05:49:31.527Z,9.10
2022-08-26T05:50:31.538Z,8.60
2022-08-26T05:51:31.577Z,8.20
2022-08-26T05:52:31.515Z,8.90
2022-08-26T05:53:31.785Z,8.90
2022-08-26T05:54:31.551Z,8.90
2022-08-26T05:55:31.493Z,9.00
2022-08-26T05:56:31.530Z,8.60
2022-08-26T05:57:31.473Z,9.70
2022-08-26T05:58:31.467Z,8.40
2022-08-26T05:59:31.458Z,9.20
2022-08-26T06:00:31.475Z,8.70
2022-08-26T06:01:31.598Z,8.30
2022-08-26T06:02:31.592Z,9.30
2022-08-26T06:03:31.432Z,9.10
2022-08-26T06:04:31.428Z,9.50
2022-08-26T06:05:35.299Z,9.80
2022-08-26T06:06:32.407Z,9.00
2022-08-26T06:07:31.448Z,9.20
2022-08-26T06:08:31.403Z,10.00
2022-08-26T06:09:31.396Z,9.50
2022-08-26T06:10:32.789Z,8.20
2022-08-26T06:11:32.377Z,9.20
2022-08-26T06:12:31.448Z,9.30
2022-08-26T06:13:32.018Z,9.40
2022-08-26T06:14:32.600Z,9.40
2022-08-26T06:15:31.446Z,9.30
2022-08-26T06:16:31.339Z,9.50
2022-08-26T06:17:31.568Z,9.70
2022-08-26T06:18:31.381Z,9.50
2022-08-26T06:19:33.047Z,10.00
2022-08-26T06:20:31.308Z,14.90
2022-08-26T06:21:31.305Z,13.60
2022-08-26T06:22:31.295Z,11.70
2022-08-26T06:23:31.294Z,9.80
2022-08-26T06:24:32.779Z,9.40
2022-08-26T06:25:31.282Z,9.60
2022-08-26T06:26:31.290Z,9.60
2022-08-26T06:27:32.676Z,9.00
2022-08-26T06:28:32.246Z,8.30
2022-08-26T06:29:31.306Z,7.90
2022-08-26T06:30:31.331Z,8.60
2022-08-26T06:31:31.276Z,7.90
2022-08-26T06:32:31.385Z,8.70
2022-08-26T06:33:31.352Z,9.30
2022-08-26T06:34:31.562Z,7.90
2022-08-26T06:35:33.507Z,9.60
2022-08-26T06:36:31.240Z,8.90
2022-08-26T06:37:31.189Z,8.90
2022-08-26T06:38:31.184Z,8.40
2022-08-26T06:39:32.295Z,9.60
2022-08-26T06:40:31.252Z,8.30
2022-08-26T06:41:31.254Z,8.60
2022-08-26T06:42:31.174Z,7.70
2022-08-26T06:43:31.148Z,8.00
2022-08-26T06:44:31.312Z,8.00
2022-08-26T06:45:31.324Z,7.20
2022-08-26T06:46:31.202Z,8.40
2022-08-26T06:47:31.165Z,8.40
2022-08-26T06:48:31.103Z,7.90
2022-08-26T06:49:31.109Z,8.10
2022-08-26T06:50:31.154Z,7.60
2022-08-26T06:51:31.090Z,8.10
2022-08-26T06:52:31.086Z,8.10
2022-08-26T06:53:31.086Z,8.00
2022-08-26T06:54:31.067Z,8.10
2022-08-26T06:55:31.140Z,7.60
2022-08-26T06:56:31.094Z,7.80
2022-08-26T06:57:31.083Z,7.70
2022-08-26T06:58:31.077Z,7.70
2022-08-26T06:59:31.051Z,8.20
2022-08-26T07:00:31.027Z,8.10
2022-08-26T07:01:31.119Z,7.60
2022-08-26T07:02:31.044Z,7.90
2022-08-26T07:03:31.012Z,7.90
2022-08-26T07:04:32.001Z,8.10
2022-08-26T07:05:31.017Z,7.50
2022-08-26T07:06:31.015Z,7.60
2022-08-26T07:07:31.046Z,7.00
2022-08-26T07:08:30.977Z,6.70
2022-08-26T07:09:30.969Z,7.10
2022-08-26T07:10:30.964Z,6.50
2022-08-26T07:11:30.961Z,7.40
2022-08-26T07:12:31.059Z,7.00
2022-08-26T07:13:31.041Z,7.30
2022-08-26T07:14:30.966Z,6.30
2022-08-26T07:15:31.450Z,6.90
2022-08-26T07:16:30.934Z,6.70
2022-08-26T07:17:30.918Z,7.00
2022-08-26T07:18:31.095Z,7.20
2022-08-26T07:19:31.912Z,7.90
2022-08-26T07:20:31.914Z,6.90
2022-08-26T07:21:30.915Z,6.60
2022-08-26T07:22:30.888Z,6.70
2022-08-26T07:23:30.959Z,6.50
2022-08-26T07:24:30.856Z,7.20
2022-08-26T07:25:30.856Z,6.20
2022-08-26T07:26:30.864Z,6.20
2022-08-26T07:27:30.838Z,6.30
2022-08-26T07:28:30.824Z,6.10
2022-08-26T07:29:30.885Z,6.30
2022-08-26T07:30:30.826Z,6.40
2022-08-26T07:31:33.567Z,6.30
2022-08-26T07:32:31.828Z,6.80
2022-08-26T07:33:30.810Z,6.90
2022-08-26T07:34:30.848Z,6.30
2022-08-26T07:35:30.811Z,6.70
2022-08-26T07:36:30.822Z,6.70
2022-08-26T07:37:30.774Z,6.60
2022-08-26T07:38:31.778Z,6.50
2022-08-26T07:39:31.670Z,6.30
2022-08-26T07:40:30.926Z,6.40
2022-08-26T07:41:30.751Z,7.00
2022-08-26T07:42:30.734Z,6.80
2022-08-26T07:43:30.728Z,7.00
2022-08-26T07:44:30.724Z,6.90
2022-08-26T07:45:30.861Z,7.20
2022-08-26T07:46:30.740Z,6.40
2022-08-26T07:47:31.620Z,7.30
2022-08-26T07:48:30.710Z,7.00
2022-08-26T07:49:30.741Z,8.40
2022-08-26T07:50:49.386Z,8.30
2022-08-26T07:51:31.722Z,7.90
2022-08-26T07:52:30.665Z,7.50
2022-08-26T07:53:30.676Z,7.80
2022-08-26T07:54:30.650Z,7.90
2022-08-26T07:55:30.645Z,7.60
2022-08-26T07:56:30.743Z,7.70
2022-08-26T07:57:30.640Z,7.40
2022-08-26T07:58:30.633Z,7.30
2022-08-26T07:59:30.634Z,8.60
2022-08-26T08:00:30.620Z,7.90
2022-08-26T08:01:30.621Z,8.20
2022-08-26T08:02:30.654Z,7.50
2022-08-26T08:03:30.589Z,7.40
2022-08-26T08:04:31.579Z,7.00
2022-08-26T08:05:33.548Z,7.20
2022-08-26T08:06:30.564Z,8.00
2022-08-26T08:07:44.490Z,8.80
2022-08-26T08:08:31.563Z,7.00
2022-08-26T08:09:30.546Z,7.70
2022-08-26T08:10:30.536Z,7.30
2022-08-26T08:11:30.528Z,8.00
2022-08-26T08:12:30.571Z,8.10
2022-08-26T08:13:30.557Z,7.70
2022-08-26T08:14:30.519Z,7.40
2022-08-26T08:15:30.499Z,8.60
2022-08-26T08:16:32.293Z,7.90
2022-08-26T08:17:30.490Z,7.50
2022-08-26T08:18:30.540Z,7.90
2022-08-26T08:19:36.726Z,7.70
2022-08-26T08:20:31.487Z,7.90
2022-08-26T08:21:30.456Z,7.20
2022-08-26T08:22:30.456Z,7.60
2022-08-26T08:23:30.457Z,7.50
2022-08-26T08:24:30.503Z,8.00
2022-08-26T08:25:30.432Z,8.60
2022-08-26T08:26:30.441Z,8.70
2022-08-26T08:27:30.436Z,8.10
2022-08-26T08:28:30.416Z,10.90
2022-08-26T08:29:30.424Z,7.60
2022-08-26T08:30:30.708Z,7.40
2022-08-26T08:31:55.709Z,7.80
2022-08-26T08:32:32.858Z,7.40
2022-08-26T08:33:30.420Z,6.80
2022-08-26T08:34:30.454Z,7.10
2022-08-26T08:35:30.456Z,7.50
2022-08-26T08:36:36.001Z,7.90
2022-08-26T08:37:31.506Z,6.50
2022-08-26T08:38:30.409Z,6.90
2022-08-26T08:39:30.432Z,7.60
2022-08-26T08:40:31.063Z,7.80
2022-08-26T08:41:30.311Z,7.10
2022-08-26T08:42:31.290Z,6.80
2022-08-26T08:43:30.626Z,7.40
2022-08-26T08:44:36.541Z,6.60
2022-08-26T08:45:35.923Z,6.50
2022-08-26T08:46:32.326Z,7.60
2022-08-26T08:47:30.526Z,7.00
2022-08-26T08:48:31.059Z,7.30
2022-08-26T08:49:30.251Z,6.50
2022-08-26T08:50:30.254Z,7.20
2022-08-26T08:51:30.235Z,6.60
2022-08-26T08:52:30.239Z,7.70
2022-08-26T08:53:30.257Z,6.50
2022-08-26T08:54:30.295Z,7.40
2022-08-26T08:55:30.232Z,7.50
2022-08-26T08:56:30.250Z,5.60
2022-08-26T08:57:30.240Z,7.20
2022-08-26T08:58:30.345Z,7.10
2022-08-26T08:59:30.246Z,6.60
2022-08-26T09:00:30.750Z,6.50
2022-08-26T09:01:30.291Z,5.80
2022-08-26T09:02:30.224Z,5.90
2022-08-26T09:03:30.229Z,6.40
2022-08-26T09:04:31.224Z,6.70
2022-08-26T09:05:30.205Z,6.60
2022-08-26T09:06:31.271Z,7.30
2022-08-26T09:07:32.165Z,7.20
2022-08-26T09:08:30.161Z,6.30
2022-08-26T09:09:30.194Z,6.70
2022-08-26T09:10:30.112Z,6.20
2022-08-26T09:11:30.140Z,6.40
2022-08-26T09:12:30.133Z,7.00
2022-08-26T09:13:31.795Z,5.70
2022-08-26T09:14:30.103Z,6.90
2022-08-26T09:15:30.570Z,6.90
2022-08-26T09:16:30.158Z,6.90
2022-08-26T09:17:30.071Z,7.00
2022-08-26T09:18:30.081Z,6.40
2022-08-26T09:19:30.100Z,6.60
2022-08-26T09:20:30.081Z,6.40
2022-08-26T09:21:30.053Z,6.00
2022-08-26T09:22:30.047Z,6.10
2022-08-26T09:23:30.087Z,6.60
2022-08-26T09:24:30.072Z,6.20
2022-08-26T09:25:30.040Z,6.30
2022-08-26T09:26:31.077Z,6.30
2022-08-26T09:27:30.024Z,6.30
2022-08-26T09:28:30.124Z,6.40
2022-08-26T09:29:30.630Z,6.80
2022-08-26T09:30:30.119Z,5.30
2022-08-26T09:31:30.751Z,5.90
2022-08-26T09:32:29.984Z,5.80
2022-08-26T09:33:30.193Z,6.60
2022-08-26T09:34:30.066Z,5.70
2022-08-26T09:35:29.993Z,7.40
2022-08-26T09:36:29.988Z,6.60
2022-08-26T09:37:29.974Z,6.40
2022-08-26T09:38:30.042Z,6.60
2022-08-26T09:39:30.006Z,6.10
2022-08-26T09:40:29.991Z,6.00
2022-08-26T09:41:29.961Z,6.30
2022-08-26T09:42:29.971Z,6.20
2022-08-26T09:43:29.935Z,5.80
2022-08-26T09:44:29.942Z,5.90
2022-08-26T09:45:30.014Z,5.70
2022-08-26T09:46:29.970Z,5.50
2022-08-26T09:47:29.905Z,4.80
2022-08-26T09:48:29.899Z,5.30
2022-08-26T09:49:33.824Z,6.20
2022-08-26T09:50:31.887Z,5.50
2022-08-26T09:51:29.916Z,5.60
2022-08-26T09:52:29.879Z,5.80
2022-08-26T09:53:30.434Z,5.80
2022-08-26T09:54:30.524Z,5.50
2022-08-26T09:55:29.852Z,5.80
2022-08-26T09:56:29.852Z,5.00
2022-08-26T09:57:29.861Z,5.90
2022-08-26T09:58:29.897Z,5.10
2022-08-26T09:59:29.863Z,5.60
2022-08-26T10:00:29.824Z,6.30
2022-08-26T10:01:30.081Z,5.60
2022-08-26T10:02:29.825Z,5.40
2022-08-26T10:03:31.382Z,5.10
2022-08-26T10:04:29.890Z,5.30
2022-08-26T10:05:29.897Z,4.70
2022-08-26T10:06:29.825Z,4.80
2022-08-26T10:07:29.785Z,4.90
2022-08-26T10:08:29.777Z,5.10
2022-08-26T10:09:29.951Z,4.70
2022-08-26T10:10:29.761Z,4.60
2022-08-26T10:11:29.773Z,4.80
2022-08-26T10:12:29.749Z,4.60
2022-08-26T10:13:29.743Z,4.80
2022-08-26T10:14:29.757Z,4.50
2022-08-26T10:15:29.730Z,4.60
2022-08-26T10:16:29.809Z,3.50
2022-08-26T10:17:30.911Z,4.40
2022-08-26T10:18:33.659Z,4.10
2022-08-26T10:19:41.645Z,4.60
2022-08-26T10:20:30.704Z,3.80
2022-08-26T10:21:29.728Z,4.50
2022-08-26T10:22:29.714Z,3.90
2022-08-26T10:23:29.712Z,3.40
2022-08-26T10:24:29.727Z,3.80
2022-08-26T10:25:29.670Z,4.00
2022-08-26T10:26:29.649Z,3.50
2022-08-26T10:27:29.645Z,3.40
2022-08-26T10:28:29.705Z,3.70
2022-08-26T10:29:29.684Z,3.60
2022-08-26T10:30:29.645Z,3.70
2022-08-26T10:31:29.712Z,3.40
2022-08-26T10:32:30.677Z,3.30
2022-08-26T10:33:29.616Z,3.90
2022-08-26T10:34:29.604Z,3.50
2022-08-26T10:35:29.617Z,3.40
2022-08-26T10:36:29.580Z,3.70
2022-08-26T10:37:29.587Z,2.80
2022-08-26T10:38:29.562Z,2.60
2022-08-26T10:39:29.570Z,2.10
2022-08-26T10:40:29.643Z,2.30
2022-08-26T10:41:29.557Z,2.20
2022-08-26T10:42:29.543Z,2.30
2022-08-26T10:43:29.537Z,2.40
2022-08-26T10:44:29.522Z,2.50
2022-08-26T10:45:29.577Z,2.40
2022-08-26T10:46:29.516Z,2.20
2022-08-26T10:47:29.499Z,2.30
2022-08-26T10:48:35.493Z,2.40
2022-08-26T10:49:30.492Z,2.50
2022-08-26T10:50:29.542Z,2.80
2022-08-26T10:51:29.470Z,3.20
2022-08-26T10:52:29.553Z,2.80
2022-08-26T10:53:29.456Z,2.90
2022-08-26T10:54:29.464Z,2.90
2022-08-26T10:55:29.600Z,2.50
2022-08-26T10:56:30.435Z,2.40
2022-08-26T10:57:30.524Z,2.30
2022-08-26T10:58:29.411Z,1.90
2022-08-26T10:59:29.553Z,2.60
2022-08-26T11:00:29.545Z,2.60
2022-08-26T11:01:29.573Z,2.70
2022-08-26T11:02:29.390Z,2.10
2022-08-26T11:03:29.420Z,2.70
2022-08-26T11:04:29.473Z,2.60
2022-08-26T11:05:30.377Z,2.70
2022-08-26T11:06:29.374Z,3.00
2022-08-26T11:07:29.351Z,3.20
2022-08-26T11:08:29.339Z,3.10
2022-08-26T11:09:29.342Z,2.20
2022-08-26T11:10:29.324Z,2.20
2022-08-26T11:11:29.341Z,2.20
2022-08-26T11:12:29.312Z,2.20
2022-08-26T11:13:29.306Z,2.20
2022-08-26T11:14:30.794Z,2.50
2022-08-26T11:15:29.323Z,2.50
2022-08-26T11:16:29.364Z,2.30
2022-08-26T11:17:30.281Z,2.30
2022-08-26T11:18:29.322Z,2.80
2022-08-26T11:19:40.086Z,2.50
2022-08-26T11:20:31.291Z,2.20
2022-08-26T11:21:29.287Z,2.20
2022-08-26T11:22:29.245Z,2.50
2022-08-26T11:23:29.232Z,2.60
2022-08-26T11:24:29.223Z,2.90
2022-08-26T11:25:30.896Z,2.50
2022-08-26T11:26:35.985Z,2.40
2022-08-26T11:27:30.208Z,2.40
2022-08-26T11:28:29.188Z,2.70
2022-08-26T11:29:30.206Z,2.30
2022-08-26T11:30:29.183Z,2.40
2022-08-26T11:31:29.192Z,2.30
2022-08-26T11:32:29.193Z,2.30
2022-08-26T11:33:29.229Z,2.30
2022-08-26T11:34:29.178Z,2.50
2022-08-26T11:35:29.148Z,2.50
2022-08-26T11:36:30.117Z,2.60
2022-08-26T11:37:29.352Z,2.70
2022-08-26T11:38:30.107Z,2.30
2022-08-26T11:39:29.105Z,2.70
2022-08-26T11:40:29.248Z,3.10
2022-08-26T11:41:29.104Z,2.60
2022-08-26T11:42:29.105Z,3.00
2022-08-26T11:43:30.291Z,2.60
2022-08-26T11:44:29.068Z,2.90
2022-08-26T11:45:29.527Z,2.80
2022-08-26T11:46:29.058Z,2.70
2022-08-26T11:47:29.448Z,2.60
2022-08-26T11:48:29.048Z,2.70
2022-08-26T11:49:29.062Z,2.50
2022-08-26T11:50:29.030Z,2.50
2022-08-26T11:51:29.040Z,2.60
2022-08-26T11:52:29.093Z,2.70
2022-08-26T11:53:28.989Z,2.70
2022-08-26T11:54:35.261Z,2.60
2022-08-26T11:55:29.996Z,2.60
2022-08-26T11:56:31.774Z,2.50
2022-08-26T11:57:29.029Z,3.30
2022-08-26T11:58:28.960Z,2.80
2022-08-26T11:59:28.996Z,2.40
2022-08-26T12:00:33.414Z,2.80
2022-08-26T12:01:31.196Z,2.70
2022-08-26T12:02:28.947Z,2.80
2022-08-26T12:03:29.029Z,2.70
2022-08-26T12:04:29.091Z,2.50
2022-08-26T12:05:30.904Z,2.70
2022-08-26T12:06:28.944Z,2.40
2022-08-26T12:07:28.928Z,2.80
2022-08-26T12:08:28.919Z,2.30
2022-08-26T12:09:28.878Z,2.60
2022-08-26T12:10:29.522Z,2.70
2022-08-26T12:11:28.903Z,2.50
2022-08-26T12:12:31.793Z,2.90
2022-08-26T12:13:30.883Z,2.50
2022-08-26T12:14:28.856Z,2.20
2022-08-26T12:15:29.547Z,2.60
2022-08-26T12:16:28.919Z,2.30
2022-08-26T12:17:28.855Z,2.10
2022-08-26T12:18:30.083Z,2.20
2022-08-26T12:19:28.804Z,2.20
2022-08-26T12:20:28.851Z,2.00
2022-08-26T12:21:29.536Z,2.10
2022-08-26T12:22:28.828Z,2.20
2022-08-26T12:23:28.779Z,2.10
2022-08-26T12:24:28.882Z,1.90
2022-08-26T12:25:28.766Z,2.30
2022-08-26T12:26:28.761Z,2.10
2022-08-26T12:27:28.924Z,2.30
2022-08-26T12:28:28.775Z,2.30
2022-08-26T12:29:28.748Z,2.80
2022-08-26T12:30:28.733Z,2.90
2022-08-26T12:31:28.863Z,2.30
2022-08-26T12:32:28.745Z,2.70
2022-08-26T12:33:29.222Z,2.90
2022-08-26T12:34:28.704Z,2.80
2022-08-26T12:35:28.782Z,2.50
2022-08-26T12:36:28.718Z,3.00
2022-08-26T12:37:28.729Z,2.60
2022-08-26T12:38:28.704Z,2.80
2022-08-26T12:39:28.691Z,2.60
2022-08-26T12:40:28.777Z,2.80
2022-08-26T12:41:28.669Z,2.80
2022-08-26T12:42:28.675Z,3.20
2022-08-26T12:43:28.697Z,2.90
2022-08-26T12:44:28.638Z,2.90
2022-08-26T12:45:28.700Z,2.70
2022-08-26T12:46:28.637Z,3.40
2022-08-26T12:47:42.035Z,3.20
2022-08-26T12:48:29.644Z,2.80
2022-08-26T12:49:28.616Z,3.20
2022-08-26T12:50:28.607Z,3.00
2022-08-26T12:51:28.615Z,3.10
2022-08-26T12:52:28.627Z,3.20
2022-08-26T12:53:28.643Z,3.40
2022-08-26T12:54:28.601Z,3.00
2022-08-26T12:55:28.592Z,3.50
2022-08-26T12:56:28.590Z,3.20
2022-08-26T12:57:28.603Z,3.10
2022-08-26T12:58:28.601Z,3.60
2022-08-26T12:59:28.579Z,3.90
2022-08-26T13:00:28.617Z,3.30
2022-08-26T13:01:28.917Z,3.60
2022-08-26T13:02:28.692Z,3.70
2022-08-26T13:03:28.663Z,3.70
2022-08-26T13:04:28.562Z,3.80
2022-08-26T13:05:28.588Z,3.70
2022-08-26T13:06:28.580Z,3.80
2022-08-26T13:07:28.580Z,3.50
2022-08-26T13:08:28.582Z,3.80
2022-08-26T13:09:28.559Z,4.40
2022-08-26T13:10:31.035Z,4.70
2022-08-26T13:11:29.527Z,4.20
2022-08-26T13:12:29.190Z,3.80
2022-08-26T13:13:28.518Z,4.10
2022-08-26T13:14:28.497Z,5.20
2022-08-26T13:15:28.511Z,5.10